createdAt,value
2023-01-25T00:01:48.591Z,103023.06
2023-01-25T00:06:51.663Z,103015.13
2023-01-25T00:11:56.256Z,103006.31
2023-01-25T00:16:58.247Z,103001.03
2023-01-25T00:22:00.564Z,103001.91
2023-01-25T00:27:02.922Z,102989.59
2023-01-25T00:32:27.577Z,102988.66
2023-01-25T00:37:42.567Z,102979.91
2023-01-25T00:42:44.422Z,102982.50
2023-01-25T00:47:46.428Z,102984.28
2023-01-25T00:52:48.280Z,102976.34
2023-01-25T00:57:50.091Z,102969.31
2023-01-25T01:02:52.298Z,102969.31
2023-01-25T01:07:56.357Z,102967.53
2023-01-25T01:12:58.446Z,102976.38
2023-01-25T01:18:00.356Z,102970.16
2023-01-25T01:23:02.144Z,102972.84
2023-01-25T01:28:04.118Z,102964.03
2023-01-25T01:33:07.141Z,102962.25
2023-01-25T01:38:09.060Z,102964.00
2023-01-25T01:43:22.050Z,102957.84
2023-01-25T01:48:45.506Z,102956.09
2023-01-25T01:53:53.274Z,102960.50
2023-01-25T01:58:58.543Z,102954.34
2023-01-25T02:04:01.881Z,102956.06
2023-01-25T02:09:03.795Z,102957.84
2023-01-25T02:14:06.860Z,102955.19
2023-01-25T02:19:16.668Z,102959.63
2023-01-25T02:24:29.356Z,102960.50
2023-01-25T02:29:31.998Z,102958.72
2023-01-25T02:34:33.913Z,102957.81
2023-01-25T02:39:35.716Z,102955.22
2023-01-25T02:44:38.917Z,102954.34
2023-01-25T02:49:40.785Z,102948.16
2023-01-25T02:54:43.125Z,102938.44
2023-01-25T02:59:45.092Z,102939.34
2023-01-25T03:04:47.009Z,102946.41
2023-01-25T03:09:48.943Z,102939.34
2023-01-25T03:14:51.114Z,102938.47
2023-01-25T03:19:54.400Z,102939.34
2023-01-25T03:24:57.498Z,102935.81
2023-01-25T03:29:59.248Z,102933.19
2023-01-25T03:35:01.364Z,102929.66
2023-01-25T03:40:03.517Z,102927.00
2023-01-25T03:45:06.282Z,102919.06
2023-01-25T03:50:09.100Z,102916.44
2023-01-25T03:55:11.629Z,102922.59
2023-01-25T04:00:14.094Z,102924.34
2023-01-25T04:05:16.320Z,102914.63
2023-01-25T04:10:18.409Z,102914.66
2023-01-25T04:15:20.589Z,102914.66
2023-01-25T04:20:22.677Z,102912.03
2023-01-25T04:25:24.742Z,102904.06
2023-01-25T04:30:27.093Z,102903.22
2023-01-25T04:35:29.039Z,102904.06
2023-01-25T04:40:31.595Z,102888.22
2023-01-25T04:45:33.964Z,102883.81
2023-01-25T04:50:40.649Z,102871.47
2023-01-25T04:55:47.237Z,102869.72
2023-01-25T05:00:49.292Z,102867.94
2023-01-25T05:05:51.871Z,102854.75
2023-01-25T05:10:54.276Z,102860.03
2023-01-25T05:15:58.989Z,102853.88
2023-01-25T05:21:00.904Z,102866.19
2023-01-25T05:26:28.776Z,102852.97
2023-01-25T05:31:31.033Z,102848.56
2023-01-25T05:36:33.113Z,102844.13
2023-01-25T05:41:35.070Z,102852.09
2023-01-25T05:46:36.976Z,102843.28
2023-01-25T05:51:39.241Z,102842.38
2023-01-25T05:56:41.438Z,102839.78
2023-01-25T06:01:43.735Z,102838.00
2023-01-25T06:06:45.646Z,102831.84
2023-01-25T06:11:47.537Z,102841.50
2023-01-25T06:16:49.581Z,102830.94
2023-01-25T06:21:51.482Z,102840.63
2023-01-25T06:26:53.408Z,102836.25
2023-01-25T06:31:55.982Z,102830.03
2023-01-25T06:36:57.834Z,102822.13
2023-01-25T06:41:59.817Z,102819.47
2023-01-25T06:47:01.872Z,102829.13
2023-01-25T06:52:04.162Z,102818.56
2023-01-25T06:57:06.456Z,102816.84
2023-01-25T07:02:14.538Z,102815.06
2023-01-25T07:07:16.384Z,102810.66
2023-01-25T07:12:19.794Z,102819.47
2023-01-25T07:17:21.728Z,102821.22
2023-01-25T07:22:23.965Z,102813.28
2023-01-25T07:27:26.006Z,102815.09
2023-01-25T07:32:29.463Z,102818.59
2023-01-25T07:37:31.556Z,102821.25
2023-01-25T07:42:33.721Z,102819.44
2023-01-25T07:47:37.188Z,102825.63
2023-01-25T07:52:39.969Z,102828.28
2023-01-25T07:57:42.089Z,102835.34
2023-01-25T08:02:44.173Z,102830.94
2023-01-25T08:07:46.449Z,102820.38
2023-01-25T08:12:48.164Z,102811.53
2023-01-25T08:17:50.379Z,102815.06
2023-01-25T08:22:53.258Z,102814.16
2023-01-25T08:27:55.535Z,102810.63
2023-01-25T08:32:58.040Z,102809.78
2023-01-25T08:38:00.053Z,102804.50
2023-01-25T08:43:02.037Z,102809.78
2023-01-25T08:48:04.297Z,102800.94
2023-01-25T08:53:06.359Z,102807.16
2023-01-25T08:58:11.439Z,102795.66
2023-01-25T09:03:14.003Z,102800.97
2023-01-25T09:08:15.879Z,102786.88
2023-01-25T09:13:17.723Z,102773.66
2023-01-25T09:18:19.845Z,102779.81
2023-01-25T09:23:23.962Z,102780.72
2023-01-25T09:28:27.100Z,102785.13
2023-01-25T09:33:31.771Z,102772.75
2023-01-25T09:38:34.266Z,102762.19
2023-01-25T09:43:55.677Z,102759.56
2023-01-25T09:49:28.217Z,102765.72
2023-01-25T09:54:42.375Z,102770.16
2023-01-25T09:59:51.775Z,102762.19
2023-01-25T10:04:57.857Z,102763.09
2023-01-25T10:10:07.801Z,102757.84
2023-01-25T10:15:34.736Z,102752.53
2023-01-25T10:20:46.187Z,102753.38
2023-01-25T10:26:28.145Z,102756.03
2023-01-25T10:31:40.471Z,102749.00
2023-01-25T10:36:44.606Z,102736.63
2023-01-25T10:42:15.892Z,102732.28
2023-01-25T10:47:33.436Z,102725.19
2023-01-25T10:52:39.396Z,102718.13
2023-01-25T10:57:58.077Z,102710.22
2023-01-25T11:03:00.451Z,102702.28
2023-01-25T11:08:31.523Z,102696.13
2023-01-25T11:13:33.751Z,102692.59
2023-01-25T11:18:35.790Z,102679.44
2023-01-25T11:23:37.848Z,102669.66
2023-01-25T11:28:40.827Z,102653.78
2023-01-25T11:33:43.253Z,102652.97
2023-01-25T11:39:04.246Z,102649.50
2023-01-25T11:44:36.596Z,102638.00
2023-01-25T11:50:20.778Z,102627.44
2023-01-25T11:55:54.856Z,102608.03
2023-01-25T12:01:17.990Z,102600.13
2023-01-25T12:06:51.561Z,102578.09
2023-01-25T12:11:53.628Z,102569.19
2023-01-25T12:17:14.783Z,102542.78
2023-01-25T12:22:25.698Z,102530.41
2023-01-25T12:27:52.534Z,102522.56
2023-01-25T12:33:13.897Z,102513.78
2023-01-25T12:38:26.480Z,102493.59
2023-01-25T12:43:42.477Z,102473.28
2023-01-25T12:48:50.569Z,102453.88
2023-01-25T12:53:53.702Z,102451.19
2023-01-25T12:59:15.046Z,102444.97
2023-01-25T13:04:40.872Z,102433.53
2023-01-25T13:09:56.680Z,102418.56
2023-01-25T13:14:58.714Z,102407.97
2023-01-25T13:20:00.744Z,102406.25
2023-01-25T13:25:03.218Z,102401.06
2023-01-25T13:30:20.124Z,102393.53
2023-01-25T13:35:32.618Z,102394.50
2023-01-25T13:40:38.955Z,102393.59
2023-01-25T13:45:42.162Z,102380.38
2023-01-25T13:51:01.067Z,102364.50
2023-01-25T13:56:03.653Z,102368.84
2023-01-25T14:01:16.350Z,102373.31
2023-01-25T14:06:24.207Z,102376.06
2023-01-25T14:11:31.644Z,102356.41
2023-01-25T14:16:33.672Z,102358.84
2023-01-25T14:21:35.744Z,102347.41
2023-01-25T14:26:59.365Z,102347.44
2023-01-25T14:32:04.737Z,102346.31
2023-01-25T14:37:19.065Z,102329.06
2023-01-25T14:42:21.407Z,102332.63
2023-01-25T14:47:31.885Z,102326.44
2023-01-25T14:52:33.946Z,102320.28
2023-01-25T14:57:39.147Z,102325.66
2023-01-25T15:02:47.037Z,102328.13
2023-01-25T15:07:52.633Z,102326.41
2023-01-25T15:13:13.699Z,102319.34
2023-01-25T15:18:48.727Z,102320.13
2023-01-25T15:23:51.849Z,102312.09
2023-01-25T15:28:57.229Z,102318.16
2023-01-25T15:34:01.747Z,102307.16
2023-01-25T15:39:03.777Z,102306.22
2023-01-25T15:44:06.118Z,102298.16
2023-01-25T15:49:12.072Z,102291.09
2023-01-25T15:54:14.151Z,102291.16
2023-01-25T15:59:18.189Z,102292.06
2023-01-25T16:04:20.135Z,102282.38
2023-01-25T16:09:24.308Z,102282.25
2023-01-25T16:14:31.712Z,102275.94
2023-01-25T16:19:33.961Z,102279.47
2023-01-25T16:24:39.409Z,102284.78
2023-01-25T16:29:41.747Z,102276.88
2023-01-25T16:34:43.959Z,102268.91
2023-01-25T16:39:46.160Z,102269.25
2023-01-25T16:44:48.951Z,102266.59
2023-01-25T16:49:50.883Z,102269.25
2023-01-25T16:54:52.677Z,102259.53
2023-01-25T16:59:54.640Z,102253.25
2023-01-25T17:04:56.573Z,102260.44
2023-01-25T17:09:58.738Z,102269.25
2023-01-25T17:15:00.679Z,102270.94
2023-01-25T17:20:02.896Z,102274.53
2023-01-25T17:25:06.103Z,102270.97
2023-01-25T17:30:08.842Z,102267.47
2023-01-25T17:35:10.816Z,102258.69
2023-01-25T17:40:13.081Z,102269.97
2023-01-25T17:45:14.990Z,102272.75
2023-01-25T17:50:17.366Z,102267.72
2023-01-25T17:55:19.170Z,102273.03
2023-01-25T18:00:21.285Z,102258.13
2023-01-25T18:05:23.658Z,102244.06
2023-01-25T18:10:25.683Z,102244.00
2023-01-25T18:15:28.009Z,102242.88
2023-01-25T18:20:31.446Z,102231.25
2023-01-25T18:25:35.231Z,102218.84
2023-01-25T18:30:43.445Z,102212.66
2023-01-25T18:35:48.725Z,102211.91
2023-01-25T18:40:51.054Z,102195.13
2023-01-25T18:45:58.128Z,102169.53
2023-01-25T18:51:05.405Z,102158.09
2023-01-25T18:56:19.250Z,102144.03
2023-01-25T19:01:23.263Z,102130.00
2023-01-25T19:06:25.473Z,102135.16
2023-01-25T19:11:27.725Z,102135.97
2023-01-25T19:16:29.693Z,102113.31
2023-01-25T19:21:31.429Z,102093.91
2023-01-25T19:26:33.567Z,102105.31
2023-01-25T19:31:37.566Z,102095.63
2023-01-25T19:36:46.003Z,102088.59
2023-01-25T19:41:48.150Z,102096.47
2023-01-25T19:46:50.102Z,102080.69
2023-01-25T19:51:53.747Z,102064.84
2023-01-25T19:56:56.510Z,102067.47
2023-01-25T20:01:58.524Z,102069.13
2023-01-25T20:07:00.387Z,102063.81
2023-01-25T20:12:06.253Z,102064.63
2023-01-25T20:17:08.208Z,102032.13
2023-01-25T20:22:10.515Z,102042.50
2023-01-25T20:27:12.446Z,102028.50
2023-01-25T20:32:30.708Z,102006.63
2023-01-25T20:37:34.108Z,102017.03
2023-01-25T20:42:36.804Z,102015.28
2023-01-25T20:47:39.227Z,102010.91
2023-01-25T20:52:41.255Z,102003.94
2023-01-25T20:57:43.291Z,102011.09
2023-01-25T21:02:45.299Z,102020.72
2023-01-25T21:07:47.292Z,102024.75
2023-01-25T21:12:49.145Z,102028.13
2023-01-25T21:17:52.883Z,102027.06
2023-01-25T21:22:54.991Z,102018.91
2023-01-25T21:27:56.805Z,102014.44
2023-01-25T21:32:58.587Z,102024.97
2023-01-25T21:38:00.527Z,102015.34
2023-01-25T21:43:02.377Z,102011.88
2023-01-25T21:48:04.364Z,102016.00
2023-01-25T21:53:06.075Z,102006.81
2023-01-25T21:58:07.924Z,102005.56
2023-01-25T22:03:09.717Z,101996.88
2023-01-25T22:08:11.753Z,102003.09
2023-01-25T22:13:13.516Z,102011.84
2023-01-25T22:18:15.375Z,102011.72
2023-01-25T22:23:17.513Z,102015.22
2023-01-25T22:28:19.917Z,102011.66
2023-01-25T22:33:21.854Z,102016.72
2023-01-25T22:38:24.114Z,102006.28
2023-01-25T22:43:26.070Z,102015.06
2023-01-25T22:48:28.206Z,102008.94
2023-01-25T22:53:30.481Z,102008.91
2023-01-25T22:58:34.206Z,102009.59
2023-01-25T23:03:36.717Z,102011.34
2023-01-25T23:08:40.516Z,102002.56
2023-01-25T23:13:43.155Z,101990.19
2023-01-25T23:18:51.070Z,101975.34
2023-01-25T23:23:57.355Z,101967.16
2023-01-25T23:28:59.290Z,101965.53
2023-01-25T23:34:03.516Z,101952.25
2023-01-25T23:39:05.574Z,101927.50
2023-01-25T23:44:07.763Z,101922.28
2023-01-25T23:49:09.680Z,101916.06
2023-01-25T23:54:11.724Z,101913.50
2023-01-25T23:59:13.607Z,101917.84
